Time;durP1;ratioP1;P1;durP2;ratioP2;P2;SDS_P1;SDS_P2;PMS_P1;PMS_P2;Temp;Humidity;BMP_temperature;BMP_pressure;BME280_temperature;BME280_humidity;BME280_pressure;Samples;Min_cycle;Max_cycle;Signal;HPM_P1;HPM_P2
2021/04/04 00:00:28;;;;;;;4.75;1.23;;;;;;;14.17;43.35;100961.00;5094130;28;20514;-77
2021/04/04 00:03:12;;;;;;;2.28;1.38;;;;;;;14.10;43.68;100949.81;5095157;28;20047;-77
2021/04/04 00:05:57;;;;;;;3.20;1.20;;;;;;;14.17;43.41;100958.28;5096938;28;20506;-77
2021/04/04 00:08:43;;;;;;;5.50;1.13;;;;;;;14.17;43.51;100955.53;5095213;28;20050;-77
2021/04/04 00:11:28;;;;;;;5.97;1.60;;;;;;;14.14;43.47;100956.22;5098297;28;20039;-76
2021/04/04 00:14:13;;;;;;;;;;;;;;;14.03;43.45;100960.47;5097427;28;20051;-76
2021/04/04 00:16:58;;;;;;;2.97;1.17;;;;;;;14.06;43.53;100954.34;5094191;28;19922;-76
2021/04/04 00:19:43;;;;;;;4.28;1.30;;;;;;;14.01;43.55;100954.53;5096123;28;20047;-76
2021/04/04 00:22:28;;;;;;;2.53;1.10;;;;;;;13.93;43.77;100956.19;5094843;28;20040;-76
2021/04/04 00:25:16;;;;;;;7.93;1.98;;;;;;;13.87;43.94;100964.91;5093934;28;20047;-76
2021/04/04 00:28:01;;;;;;;5.57;1.90;;;;;;;13.79;44.05;100954.84;5098009;28;20118;-77
2021/04/04 00:30:46;;;;;;;1.83;1.08;;;;;;;13.76;44.18;100961.78;5096725;28;20051;-76
2021/04/04 00:33:31;;;;;;;5.68;1.52;;;;;;;13.71;44.24;100951.81;5092835;28;20043;-75
2021/04/04 00:36:16;;;;;;;6.38;1.08;;;;;;;13.68;44.37;100965.34;5098164;28;20043;-75
2021/04/04 00:39:09;;;;;;;2.13;0.88;;;;;;;13.78;44.03;100959.50;5095042;28;20043;-76
2021/04/04 00:41:56;;;;;;;6.43;1.60;;;;;;;13.85;43.55;100962.53;5093326;28;20059;-75
2021/04/04 00:44:41;;;;;;;7.53;2.75;;;;;;;13.72;42.84;100958.09;5098660;28;20434;-76
2021/04/04 00:47:26;;;;;;;3.92;1.35;;;;;;;13.75;43.10;100954.72;5093943;28;20051;-77
2021/04/04 00:50:13;;;;;;;4.45;1.60;;;;;;;13.77;43.01;100946.97;5137690;22;20703;-78
2021/04/04 00:52:58;;;;;;;8.13;1.85;;;;;;;13.75;43.41;100945.69;5051411;28;20056;-80
2021/04/04 00:55:43;;;;;;;5.10;1.20;;;;;;;13.78;43.51;100948.56;5050934;28;20044;-80
2021/04/04 00:58:29;;;;;;;2.38;1.30;;;;;;;13.82;43.24;100945.97;5050707;28;20049;-80
2021/04/04 01:01:14;;;;;;;2.60;1.10;;;;;;;13.73;43.13;100946.03;5047420;28;20045;-79
2021/04/04 01:03:59;;;;;;;5.13;1.40;;;;;;;13.80;42.96;100943.59;5046749;28;20536;-82
2021/04/04 01:06:43;;;;;;;4.30;1.20;;;;;;;13.71;42.80;100938.16;5034360;28;20052;-80
2021/04/04 01:09:28;;;;;;;3.83;1.08;;;;;;;13.74;42.82;100935.91;5048416;28;20044;-80
2021/04/04 01:12:13;;;;;;;6.10;1.45;;;;;;;13.77;41.99;100940.69;5044668;28;20072;-82
2021/04/04 01:15:04;;;;;;;3.90;1.00;;;;;;;13.80;41.88;100940.03;5048321;28;20045;-81
2021/04/04 01:17:52;;;;;;;3.25;1.02;;;;;;;13.74;42.14;100936.69;5047210;28;20044;-80
2021/04/04 01:20:51;;;;;;;4.22;1.02;;;;;;;13.76;42.43;100939.09;5032729;28;20044;-81
2021/04/04 01:23:57;;;;;;;4.82;1.33;;;;;;;13.71;42.22;100938.16;5045356;28;20053;-81
2021/04/04 01:27:15;;;;;;;6.03;1.25;;;;;;;13.73;41.97;100942.50;5051847;28;20044;-81
2021/04/04 01:30:01;;;;;;;2.92;1.13;;;;;;;13.64;41.96;100932.41;5050037;28;20036;-80
2021/04/04 01:32:48;;;;;;;7.03;1.63;;;;;;;13.55;41.78;100934.41;5050877;28;20052;-80
2021/04/04 01:35:39;;;;;;;5.95;1.35;;;;;;;13.68;41.77;100938.00;5051238;28;20052;-81
2021/04/04 01:38:27;;;;;;;8.45;1.40;;;;;;;13.64;41.57;100935.16;5037624;28;20047;-80
2021/04/04 01:41:32;;;;;;;4.40;1.40;;;;;;;13.56;41.88;100943.41;5056816;28;20044;-80
2021/04/04 01:44:22;;;;;;;3.30;1.10;;;;;;;13.54;41.78;100938.25;5053506;28;20037;-80
2021/04/04 01:47:08;;;;;;;3.35;1.10;;;;;;;13.54;41.79;100926.53;5051109;28;20282;-79
2021/04/04 01:49:56;;;;;;;6.53;1.00;;;;;;;13.61;41.55;100929.56;5047274;28;20031;-79
2021/04/04 01:52:42;;;;;;;5.22;1.45;;;;;;;13.58;41.53;100928.28;5053248;28;20417;-80
2021/04/04 01:55:28;;;;;;;4.15;1.40;;;;;;;13.61;41.42;100933.06;5054081;28;20044;-81
2021/04/04 01:58:14;;;;;;;5.18;1.20;;;;;;;13.57;41.34;100934.84;5048768;28;20132;-80
2021/04/04 02:01:00;;;;;;;5.53;1.50;;;;;;;13.52;41.42;100935.03;5049254;28;20127;-79
2021/04/04 02:03:45;;;;;;;4.88;1.30;;;;;;;13.48;41.65;100930.56;5054305;28;20044;-79
2021/04/04 02:06:32;;;;;;;3.90;1.17;;;;;;;13.38;42.02;100933.66;5055001;28;20515;-81
2021/04/04 02:09:21;;;;;;;5.03;1.35;;;;;;;13.38;41.71;100929.00;5048168;28;20040;-80
2021/04/04 02:12:07;;;;;;;6.75;1.33;;;;;;;13.31;41.84;100936.13;5052941;28;20048;-81
2021/04/04 02:14:55;;;;;;;6.75;1.15;;;;;;;13.23;42.25;100932.28;5032437;28;20040;-81
2021/04/04 02:17:42;;;;;;;8.05;1.55;;;;;;;13.14;42.42;100934.25;5053035;28;20059;-81
2021/04/04 02:20:39;;;;;;;3.03;1.10;;;;;;;13.07;42.43;100928.47;5058625;28;20060;-79
2021/04/04 02:23:26;;;;;;;2.88;1.50;;;;;;;13.15;41.84;100924.94;5049519;28;20052;-80
2021/04/04 02:26:11;;;;;;;7.43;1.48;;;;;;;13.29;41.07;100922.78;5052652;28;20044;-79
2021/04/04 02:28:57;;;;;;;2.15;1.15;;;;;;;13.41;40.68;100916.66;5060461;28;20048;-82
2021/04/04 02:31:55;;;;;;;6.93;1.35;;;;;;;13.47;40.32;100920.75;5054237;28;20048;-79
2021/04/04 02:34:44;;;;;;;7.10;1.50;;;;;;;13.32;40.44;100918.59;5056058;28;20051;-81
2021/04/04 02:37:29;;;;;;;7.20;1.45;;;;;;;13.43;40.50;100926.09;5038716;28;20091;-78
2021/04/04 02:40:15;;;;;;;4.88;1.45;;;;;;;13.38;40.76;100931.75;5052617;28;20052;-82
2021/04/04 02:43:01;;;;;;;4.60;1.40;;;;;;;13.17;41.26;100925.41;5060270;28;20044;-80
2021/04/04 02:45:49;;;;;;;3.55;1.27;;;;;;;13.07;41.50;100928.47;5052015;28;20056;-79
2021/04/04 02:48:40;;;;;;;6.03;1.75;;;;;;;12.88;41.93;100930.78;5053485;28;20040;-80
2021/04/04 02:51:31;;;;;;;7.85;1.55;;;;;;;12.89;41.94;100932.38;5044628;28;20052;-80
2021/04/04 02:54:21;;;;;;;4.70;1.50;;;;;;;12.83;42.08;100935.28;5044685;28;20035;-79
2021/04/04 02:57:08;;;;;;;6.55;1.50;;;;;;;12.90;42.00;100936.72;5052323;28;20064;-80
2021/04/04 02:59:56;;;;;;;4.43;1.50;;;;;;;13.07;41.01;100925.72;5035892;28;20064;-79
2021/04/04 03:02:42;;;;;;;3.40;1.60;;;;;;;13.21;40.71;100935.34;5057419;28;20048;-78
2021/04/04 03:05:27;;;;;;;3.35;1.35;;;;;;;13.06;41.09;100926.84;5048099;28;20060;-79
2021/04/04 03:08:15;;;;;;;5.50;1.08;;;;;;;13.09;41.10;100928.94;5046694;28;20095;-79
2021/04/04 03:11:00;;;;;;;3.95;1.40;;;;;;;13.02;41.26;100926.72;5044043;28;20068;-79
2021/04/04 03:13:48;;;;;;;5.18;1.33;;;;;;;12.85;41.85;100933.00;5049182;28;20040;-80
2021/04/04 03:16:35;;;;;;;3.88;1.58;;;;;;;12.63;42.10;100933.25;5045910;28;20104;-78
2021/04/04 03:19:22;;;;;;;6.03;1.60;;;;;;;12.44;42.60;100932.78;5043216;28;20421;-80
2021/04/04 03:22:09;;;;;;;3.55;1.08;;;;;;;12.40;42.52;100934.53;5044492;28;20051;-80
2021/04/04 03:24:55;;;;;;;2.67;1.35;;;;;;;12.30;42.58;100915.75;5044533;28;20536;-80
2021/04/04 03:27:45;;;;;;;6.10;1.60;;;;;;;12.33;42.57;100931.50;5043041;28;20521;-79
2021/04/04 03:30:56;;;;;;;6.13;1.70;;;;;;;12.25;42.77;100929.56;5060532;28;20044;-80
2021/04/04 03:33:45;;;;;;;11.20;1.60;;;;;;;12.14;43.21;100929.06;5045887;28;20037;-78
2021/04/04 03:36:30;;;;;;;16.05;1.73;;;;;;;12.10;43.36;100927.31;5042902;28;20048;-79
2021/04/04 03:39:16;;;;;;;2.80;1.23;;;;;;;12.04;43.72;100921.22;5048665;28;20044;-78
2021/04/04 03:42:01;;;;;;;4.57;1.40;;;;;;;12.06;43.81;100932.59;5047023;28;20048;-80
2021/04/04 03:44:47;;;;;;;5.45;1.67;;;;;;;11.98;44.09;100925.25;5042716;28;20515;-79
2021/04/04 03:47:33;;;;;;;8.13;2.53;;;;;;;11.98;43.71;100920.59;5048413;28;20056;-79
2021/04/04 03:50:20;;;;;;;9.50;1.70;;;;;;;11.93;44.25;100928.13;5046684;28;20040;-78
2021/04/04 03:53:06;;;;;;;6.03;1.85;;;;;;;11.81;44.47;100926.00;5041937;28;20539;-79
2021/04/04 03:55:54;;;;;;;5.78;1.80;;;;;;;11.74;44.42;100920.22;5032086;28;20140;-80
2021/04/04 03:58:42;;;;;;;11.05;2.95;;;;;;;11.71;45.00;100931.72;5050681;28;20048;-79
2021/04/04 04:01:30;;;;;;;4.28;1.50;;;;;;;11.73;44.83;100924.09;5047812;28;20049;-79
2021/04/04 04:04:16;;;;;;;13.88;2.55;;;;;;;11.76;44.80;100930.81;5047987;28;20044;-79
2021/04/04 04:07:03;;;;;;;2.58;1.50;;;;;;;11.50;45.36;100919.81;5045878;28;20055;-79
2021/04/04 04:09:48;;;;;;;4.57;1.55;;;;;;;11.47;45.51;100926.72;5042616;28;20519;-79
2021/04/04 04:12:34;;;;;;;8.27;2.15;;;;;;;11.70;45.21;100930.13;5047194;28;20040;-79
2021/04/04 04:15:20;;;;;;;5.28;1.45;;;;;;;11.56;45.65;100924.81;5053214;28;20049;-79
2021/04/04 04:18:05;;;;;;;6.70;2.13;;;;;;;11.48;45.73;100924.75;5041194;28;20064;-80
2021/04/04 04:20:51;;;;;;;3.72;1.52;;;;;;;11.45;45.80;100933.56;5049352;28;20053;-81
2021/04/04 04:23:38;;;;;;;2.78;1.60;;;;;;;11.37;45.95;100923.47;5043636;28;20048;-81
2021/04/04 04:26:23;;;;;;;10.43;2.53;;;;;;;11.47;45.78;100936.78;5044388;28;20044;-81
2021/04/04 04:29:11;;;;;;;4.15;1.63;;;;;;;11.44;45.93;100932.78;5031282;28;20045;-80
2021/04/04 04:31:58;;;;;;;3.38;2.13;;;;;;;11.38;45.96;100934.03;5028624;28;20048;-81
2021/04/04 04:34:44;;;;;;;11.20;1.88;;;;;;;11.38;46.12;100923.13;5041782;28;20413;-80
2021/04/04 04:37:32;;;;;;;4.30;1.75;;;;;;;11.33;46.11;100931.44;5044078;28;20052;-79
2021/04/04 04:40:18;;;;;;;4.82;1.85;;;;;;;11.39;46.06;100941.06;5044545;28;20402;-79
2021/04/04 04:43:05;;;;;;;4.95;2.13;;;;;;;11.48;45.64;100939.19;5045312;28;20064;-81
2021/04/04 04:45:52;;;;;;;3.85;2.38;;;;;;;11.44;45.91;100937.41;5044586;28;20047;-79
2021/04/04 04:48:36;;;;;;;13.85;2.20;;;;;;;11.44;45.91;100934.69;5031627;28;20052;-80
2021/04/04 04:51:23;;;;;;;6.75;1.67;;;;;;;11.60;45.46;100935.84;5047011;28;20409;-80
2021/04/04 04:54:08;;;;;;;8.38;2.28;;;;;;;11.66;45.09;100934.59;5049668;28;20048;-79
2021/04/04 04:56:54;;;;;;;5.03;1.95;;;;;;;11.65;45.33;100937.63;5030930;28;20055;-79
2021/04/04 04:59:47;;;;;;;5.80;1.55;;;;;;;11.62;45.15;100943.72;5051587;28;20036;-79
2021/04/04 05:02:34;;;;;;;6.85;3.00;;;;;;;11.60;45.01;100935.84;5047764;28;20410;-80
2021/04/04 05:05:18;;;;;;;4.85;2.53;;;;;;;11.59;45.91;100947.88;5048279;28;20064;-77
2021/04/04 05:08:04;;;;;;;28.13;2.08;;;;;;;11.51;45.82;100944.00;5043613;28;20063;-78
2021/04/04 05:10:52;;;;;;;3.20;2.20;;;;;;;11.48;45.92;100943.81;5035079;28;20044;-79
2021/04/04 05:13:39;;;;;;;6.63;2.33;;;;;;;11.42;46.10;100942.38;5047714;28;20048;-78
2021/04/04 05:16:24;;;;;;;4.80;1.75;;;;;;;11.43;45.88;100947.50;5043717;28;20048;-79
2021/04/04 05:19:09;;;;;;;;;;;;;;;11.45;46.27;100945.28;5050060;28;20049;-78
2021/04/04 05:21:55;;;;;;;3.03;1.30;;;;;;;11.45;46.17;100952.63;5045715;28;20405;-78
2021/04/04 05:24:42;;;;;;;2.92;1.63;;;;;;;11.32;46.46;100950.84;5045028;28;20414;-79
2021/04/04 05:27:27;;;;;;;8.18;2.08;;;;;;;11.49;46.20;100954.41;5047297;28;20044;-79
2021/04/04 05:30:13;;;;;;;6.10;2.38;;;;;;;11.63;45.76;100961.69;5046334;28;20516;-79
2021/04/04 05:32:58;;;;;;;14.77;7.70;;;;;;;11.69;45.62;100960.38;5030400;28;20417;-80
2021/04/04 05:35:43;;;;;;;16.92;6.18;;;;;;;11.70;45.68;100957.34;5048930;28;20044;-79
2021/04/04 05:38:28;;;;;;;12.95;5.20;;;;;;;11.81;45.57;100964.16;5044516;28;20068;-79
2021/04/04 05:41:14;;;;;;;4.18;2.28;;;;;;;11.82;44.93;100964.97;5042418;28;20040;-79
2021/04/04 05:44:04;;;;;;;2.22;1.52;;;;;;;11.91;45.63;100972.03;5049774;28;20059;-78
2021/04/04 05:46:55;;;;;;;8.63;2.22;;;;;;;11.88;45.62;100985.50;5047645;28;20040;-79
2021/04/04 05:49:50;;;;;;;8.60;1.70;;;;;;;11.97;45.80;100989.03;5044503;28;20052;-79
2021/04/04 05:53:09;;;;;;;4.80;2.15;;;;;;;11.92;46.15;100998.16;5049343;28;20043;-80
2021/04/04 05:56:13;;;;;;;6.80;2.10;;;;;;;12.02;46.04;100990.81;5043792;28;20040;-79
2021/04/04 05:59:13;;;;;;;4.25;1.58;;;;;;;12.09;46.17;100991.16;5046516;28;20056;-79
2021/04/04 06:02:07;;;;;;;6.82;1.70;;;;;;;12.16;46.03;100999.66;5044949;28;20147;-79
2021/04/04 06:04:59;;;;;;;8.10;2.13;;;;;;;12.14;45.88;100999.94;5050979;28;20044;-80
2021/04/04 06:08:01;;;;;;;4.05;1.60;;;;;;;12.19;45.57;101004.47;5046026;28;20045;-80
2021/04/04 06:11:18;;;;;;;4.13;2.47;;;;;;;12.23;45.49;101008.16;5045767;28;20056;-79
2021/04/04 06:14:29;;;;;;;2.53;1.23;;;;;;;12.42;45.20;101003.19;5044771;28;20412;-79
2021/04/04 06:17:43;;;;;;;5.68;1.48;;;;;;;12.41;46.14;101015.22;5051275;28;20044;-80
2021/04/04 06:20:56;;;;;;;3.33;1.60;;;;;;;12.44;46.42;101017.34;4983834;28;20044;-79
2021/04/04 06:24:18;;;;;;;6.65;1.85;;;;;;;12.44;45.64;101017.34;5051619;28;20044;-77
2021/04/04 06:27:29;;;;;;;4.53;1.67;;;;;;;12.46;46.05;101012.34;5049533;28;20512;-79
2021/04/04 06:34:11;;;;;;;3.70;1.05;;;;;;;12.77;43.61;101015.72;5018382;28;20052;-79
2021/04/04 06:37:08;;;;;;;5.95;0.90;;;;;;;12.82;42.36;101021.00;5057946;28;20044;-79
2021/04/04 06:40:08;;;;;;;4.68;1.63;;;;;;;12.89;41.86;101020.53;5044905;28;20544;-79
2021/04/04 06:43:04;;;;;;;3.10;1.10;;;;;;;12.98;41.96;101012.31;5045124;28;20048;-78
2021/04/04 06:45:48;;;;;;;;;;;;;;;13.11;41.13;101014.03;5044923;28;20049;-79
2021/04/04 06:48:33;;;;;;;3.15;1.10;;;;;;;13.20;41.78;101020.34;5035495;28;19913;-79
2021/04/04 06:51:34;;;;;;;;;;;;;;;13.14;40.99;101010.72;5080083;22;20036;-75
2021/04/04 06:54:48;;;;;;;2.38;0.88;;;;;;;13.38;40.34;101027.34;5040282;28;19929;-79
2021/04/04 06:57:58;;;;;;;6.00;1.05;;;;;;;13.61;39.88;101031.44;5038769;28;20044;-80
2021/04/04 07:01:17;;;;;;;2.35;1.13;;;;;;;13.61;39.20;101034.16;5045204;28;20061;-81
2021/04/04 07:04:13;;;;;;;2.20;0.90;;;;;;;13.69;38.65;101030.63;5023770;28;20040;-81
2021/04/04 07:07:27;;;;;;;17.48;1.33;;;;;;;13.81;39.11;101034.59;5008813;28;20054;-81
2021/04/04 07:10:31;;;;;;;3.70;1.10;;;;;;;13.93;38.53;101034.66;5024596;28;20068;-81
2021/04/04 07:13:48;;;;;;;3.22;0.95;;;;;;;14.04;37.38;101042.19;5021963;28;20044;-81
2021/04/04 07:17:06;;;;;;;2.80;0.93;;;;;;;14.67;36.89;101048.56;5010147;28;20513;-82
2021/04/04 07:20:25;;;;;;;9.05;1.40;;;;;;;15.15;35.75;101050.69;5024833;28;20041;-80
2021/04/04 07:23:32;;;;;;;9.73;1.42;;;;;;;14.76;35.59;101051.22;5024674;28;20041;-83
2021/04/04 07:26:36;;;;;;;9.73;1.42;;;;;;;14.98;41.00;101045.38;5025795;28;20052;-74
2021/04/04 07:29:36;;;;;;;4.43;1.05;;;;;;;13.90;37.76;101049.81;5029791;28;20053;-74
2021/04/04 07:32:25;;;;;;;2.65;1.00;;;;;;;14.02;38.04;101049.09;5024200;28;20056;-74
2021/04/04 07:35:18;;;;;;;7.93;1.52;;;;;;;15.39;36.65;101056.22;5024479;28;20049;-74
2021/04/04 07:38:10;;;;;;;3.22;0.85;;;;;;;14.48;36.01;101054.47;5026649;28;20041;-73
2021/04/04 07:41:05;;;;;;;5.40;1.35;;;;;;;15.44;33.34;101052.47;5028485;28;20425;-74
2021/04/04 07:43:57;;;;;;;2.70;0.73;;;;;;;16.33;33.81;101052.63;5022243;28;20041;-74
2021/04/04 07:47:01;;;;;;;2.60;0.80;;;;;;;15.73;33.07;101063.28;5025936;28;20044;-75
2021/04/04 07:49:51;;;;;;;2.08;0.93;;;;;;;15.85;34.10;101058.97;5026942;28;20041;-77
2021/04/04 07:52:52;;;;;;;7.32;0.90;;;;;;;17.18;34.34;101071.63;5031718;28;20041;-78
2021/04/04 07:55:50;;;;;;;4.38;1.10;;;;;;;17.05;32.05;101059.91;5027868;28;20052;-78
2021/04/04 07:58:49;;;;;;;1.77;1.02;;;;;;;16.34;32.16;101062.47;5034989;28;20053;-77
2021/04/04 08:01:59;;;;;;;2.67;1.13;;;;;;;15.82;34.76;101058.50;5030479;28;20044;-76
2021/04/04 08:04:52;;;;;;;4.18;1.23;;;;;;;15.54;34.89;101054.81;5032705;28;20053;-77
2021/04/04 08:08:06;;;;;;;4.40;1.40;;;;;;;14.79;34.27;101065.03;5026467;28;20049;-76
2021/04/04 08:10:59;;;;;;;2.45;1.42;;;;;;;14.58;34.28;101066.19;5023844;28;20044;-76
2021/04/04 08:14:04;;;;;;;2.70;1.00;;;;;;;15.35;33.23;101066.25;5023191;28;20429;-76
2021/04/04 08:16:57;;;;;;;3.22;0.82;;;;;;;15.48;33.95;101063.56;5026853;28;20509;-78
2021/04/04 08:19:47;;;;;;;2.45;1.20;;;;;;;16.17;32.45;101060.78;5029522;28;20052;-76
2021/04/04 08:22:38;;;;;;;2.60;1.02;;;;;;;16.23;32.16;101062.94;5027479;28;20049;-76
2021/04/04 08:25:42;;;;;;;2.70;1.23;;;;;;;16.06;31.99;101063.19;5027336;28;20037;-76
2021/04/04 08:28:40;;;;;;;7.82;1.30;;;;;;;16.29;31.48;101062.72;5034688;28;20056;-76
2021/04/04 08:31:26;;;;;;;2.72;1.67;;;;;;;15.03;33.90;101064.34;5030037;28;20052;-75
2021/04/04 08:34:12;;;;;;;1.55;1.00;;;;;;;16.12;31.68;101067.31;5035082;28;20052;-77
2021/04/04 08:37:02;;;;;;;7.45;1.30;;;;;;;16.70;30.84;101065.19;5030200;28;20417;-78
2021/04/04 08:39:53;;;;;;;4.28;0.65;;;;;;;16.84;29.98;101071.09;5030095;28;20052;-77
2021/04/04 08:42:40;;;;;;;2.58;1.00;;;;;;;16.83;29.34;101074.97;5030102;28;20044;-78
2021/04/04 08:45:32;;;;;;;2.58;1.25;;;;;;;21.76;21.33;101068.69;5031950;28;20413;-78
2021/04/04 08:48:18;;;;;;;8.75;0.82;;;;;;;24.32;18.68;101074.06;5032484;28;20048;-78
2021/04/04 08:51:10;;;;;;;7.68;0.80;;;;;;;24.24;17.81;101076.06;5015330;28;20065;-76
2021/04/04 08:53:57;;;;;;;4.88;1.40;;;;;;;21.71;22.82;101071.81;5034691;28;20109;-76
2021/04/04 08:56:45;;;;;;;6.18;1.58;;;;;;;22.88;19.32;101067.91;5032050;28;20052;-77
2021/04/04 08:59:35;;;;;;;2.35;1.88;;;;;;;20.05;22.41;101064.97;5029830;28;20048;-78
2021/04/04 09:02:25;;;;;;;4.28;0.60;;;;;;;21.34;18.83;101064.34;5028539;28;20048;-75
2021/04/04 09:05:11;;;;;;;5.07;1.38;;;;;;;23.84;18.02;101066.13;5025562;28;20048;-77
2021/04/04 09:07:59;;;;;;;5.47;1.45;;;;;;;23.69;19.22;101070.09;5029049;28;20052;-76
2021/04/04 09:10:46;;;;;;;3.25;0.98;;;;;;;27.11;14.78;101078.81;5029806;28;20049;-77
2021/04/04 09:13:36;;;;;;;11.85;0.93;;;;;;;24.22;16.09;101072.09;5027322;28;20421;-77
2021/04/04 09:16:20;;;;;;;1.83;0.70;;;;;;;26.27;14.90;101078.56;5034059;28;20056;-77
2021/04/04 09:19:06;;;;;;;0.98;0.80;;;;;;;25.20;16.35;101070.16;5031141;28;20412;-76
2021/04/04 09:21:50;;;;;;;2.28;1.23;;;;;;;22.08;18.98;101072.56;5033139;28;20051;-75
2021/04/04 09:25:01;;;;;;;4.97;1.63;;;;;;;20.03;24.92;101064.53;5029918;28;20052;-76
2021/04/04 09:27:47;;;;;;;2.45;1.02;;;;;;;25.70;16.20;101064.31;5025774;28;20512;-82
2021/04/04 09:30:38;;;;;;;2.60;1.20;;;;;;;28.27;13.18;101081.03;5033399;28;20060;-81
2021/04/04 09:33:29;;;;;;;2.63;1.20;;;;;;;28.46;13.75;101081.03;5031448;28;20056;-80
2021/04/04 09:36:17;;;;;;;2.55;0.85;;;;;;;31.47;11.13;101092.38;5021029;28;20045;-79
2021/04/04 09:39:02;;;;;;;3.13;1.10;;;;;;;32.46;10.07;101094.69;5031709;28;20064;-80
2021/04/04 09:41:49;;;;;;;6.50;1.15;;;;;;;25.02;16.00;101075.06;5026684;28;20418;-77
2021/04/04 09:44:35;;;;;;;1.60;0.90;;;;;;;25.29;16.11;101078.91;5028301;28;20057;-75
2021/04/04 09:47:33;;;;;;;1.67;1.08;;;;;;;22.31;18.13;101077.03;5029839;28;20049;-77
2021/04/04 09:50:29;;;;;;;3.53;1.23;;;;;;;26.23;14.94;101077.81;5028520;28;20042;-77
2021/04/04 09:53:41;;;;;;;4.88;1.60;;;;;;;22.61;18.26;101072.09;5026184;28;20049;-76
2021/04/04 09:56:30;;;;;;;2.13;1.20;;;;;;;19.79;21.69;101059.41;5014262;28;20413;-79
2021/04/04 09:59:27;;;;;;;3.65;1.15;;;;;;;18.78;22.92;101066.97;5034416;28;20800;-76
2021/04/04 10:02:11;;;;;;;4.38;1.50;;;;;;;20.84;21.07;101049.13;5027296;28;20537;-76
2021/04/04 10:04:56;;;;;;;3.75;1.30;;;;;;;20.95;20.66;101052.03;5022757;28;20041;-76
2021/04/04 10:07:41;;;;;;;5.32;1.38;;;;;;;17.93;24.58;101045.72;5033019;28;20409;-76
2021/04/04 10:10:29;;;;;;;2.80;1.23;;;;;;;18.11;24.59;101050.84;5030378;28;20517;-77
2021/04/04 10:13:15;;;;;;;3.25;1.30;;;;;;;17.35;24.50;101046.56;5014895;28;20517;-77
2021/04/04 10:16:01;;;;;;;3.70;1.60;;;;;;;27.67;14.21;101054.88;5010452;28;20524;-76
2021/04/04 10:19:03;;;;;;;10.38;1.20;;;;;;;22.57;18.05;101046.31;5028833;28;20044;-77
2021/04/04 10:21:59;;;;;;;5.03;1.55;;;;;;;20.71;20.33;101033.97;5026167;28;20057;-76
2021/04/04 10:24:44;;;;;;;13.38;1.70;;;;;;;20.93;20.68;101044.09;5032427;28;20580;-78
2021/04/04 10:27:29;;;;;;;1.70;1.30;;;;;;;24.11;16.89;101043.50;5035411;28;20056;-76
2021/04/04 10:30:20;;;;;;;2.95;1.00;;;;;;;24.08;16.72;101041.50;5029500;28;20121;-77
2021/04/04 10:33:18;;;;;;;2.95;1.13;;;;;;;25.65;15.10;101043.25;5029849;28;20425;-78
2021/04/04 10:36:11;;;;;;;2.92;1.30;;;;;;;22.35;18.26;101028.00;5032364;28;20064;-77
2021/04/04 10:38:59;;;;;;;3.13;1.02;;;;;;;21.01;19.72;101028.41;5035716;28;20040;-78
2021/04/04 10:41:44;;;;;;;4.28;1.42;;;;;;;21.13;20.02;101028.13;5033177;28;20417;-76
2021/04/04 10:44:29;;;;;;;10.27;1.55;;;;;;;23.43;16.87;101026.00;5033757;28;20048;-76
2021/04/04 10:47:21;;;;;;;2.67;1.10;;;;;;;20.99;20.34;101029.94;5027429;28;20049;-78
2021/04/04 10:50:16;;;;;;;2.80;1.30;;;;;;;18.84;22.39;101017.88;5027960;28;20050;-78
2021/04/04 10:53:02;;;;;;;4.43;1.00;;;;;;;19.78;21.92;101022.75;5026029;28;20633;-77
2021/04/04 10:55:48;;;;;;;7.18;1.65;;;;;;;24.91;15.92;101024.22;5032969;28;20049;-76
2021/04/04 10:58:34;;;;;;;1.75;1.27;;;;;;;27.43;13.39;101034.44;5030607;28;20045;-76
2021/04/04 11:01:19;;;;;;;5.20;1.35;;;;;;;29.99;11.70;101027.22;5027634;28;20048;-75
2021/04/04 11:04:05;;;;;;;1.48;0.93;;;;;;;20.51;20.43;101015.16;5033676;28;20044;-77
2021/04/04 11:06:50;;;;;;;6.00;1.40;;;;;;;25.55;15.71;101030.19;5036826;28;20056;-77
2021/04/04 11:09:34;;;;;;;;;;;;;;;22.12;18.63;101026.28;5032859;28;20107;-77
2021/04/04 11:12:20;;;;;;;2.20;1.40;;;;;;;21.32;19.23;101008.59;5028232;28;19917;-76
2021/04/04 11:15:09;;;;;;;2.15;1.63;;;;;;;24.69;16.40;101015.94;5032643;28;20044;-77
2021/04/04 11:17:55;;;;;;;16.60;1.83;;;;;;;26.54;14.57;101023.69;5025946;28;20052;-76
2021/04/04 11:20:43;;;;;;;4.80;1.23;;;;;;;22.03;18.78;101011.97;5029944;28;20064;-77
2021/04/04 11:23:29;;;;;;;5.90;1.33;;;;;;;21.36;19.75;101016.13;5022886;28;20049;-77
2021/04/04 11:26:22;;;;;;;1.55;1.23;;;;;;;27.80;13.40;101016.69;5026869;28;20528;-77
2021/04/04 11:29:21;;;;;;;3.28;1.40;;;;;;;33.68;8.60;101019.13;5033169;28;20060;-77
2021/04/04 11:32:17;;;;;;;4.80;1.30;;;;;;;32.97;9.28;101016.34;5027225;28;20523;-76
2021/04/04 11:35:05;;;;;;;3.22;1.23;;;;;;;29.14;11.45;101016.06;5023841;28;20044;-77
2021/04/04 11:37:50;;;;;;;1.60;1.02;;;;;;;24.12;16.51;101004.19;5029880;28;20048;-76
2021/04/04 11:40:35;;;;;;;1.40;1.00;;;;;;;22.05;18.29;100994.94;5029744;28;20044;-77
2021/04/04 11:43:28;;;;;;;6.80;1.30;;;;;;;28.37;12.90;101007.28;5024670;28;20108;-76
2021/04/04 11:46:42;;;;;;;1.58;1.20;;;;;;;23.37;16.80;100999.81;5035713;28;20048;-77
2021/04/04 11:49:28;;;;;;;5.13;1.40;;;;;;;21.86;18.71;100981.34;5027552;28;20037;-76
2021/04/04 11:52:16;;;;;;;1.55;1.20;;;;;;;19.46;21.60;100980.81;5027935;28;20061;-76
2021/04/04 11:55:01;;;;;;;2.30;1.30;;;;;;;19.28;21.54;100973.38;5029142;28;20068;-76
2021/04/04 11:57:47;;;;;;;;;;;;;;;19.96;20.92;100976.88;5027335;28;20048;-77
2021/04/04 12:00:31;;;;;;;9.20;1.50;;;;;;;19.90;20.98;100974.81;5036153;28;19913;-76
2021/04/04 12:03:24;;;;;;;3.38;1.85;;;;;;;20.67;20.33;100971.53;5032482;28;20037;-77
2021/04/04 12:06:14;;;;;;;5.18;1.70;;;;;;;21.10;19.89;100970.00;5036725;28;20103;-76
2021/04/04 12:08:59;;;;;;;4.13;1.33;;;;;;;26.11;15.61;100975.94;5032600;28;20068;-76
2021/04/04 12:11:44;;;;;;;3.00;1.38;;;;;;;24.82;16.13;100963.44;5035472;28;20049;-76
2021/04/04 12:14:29;;;;;;;3.47;1.30;;;;;;;31.55;10.58;100975.63;5030816;28;20547;-77
2021/04/04 12:17:16;;;;;;;3.00;1.50;;;;;;;34.52;8.65;100979.16;5034323;28;20048;-77
2021/04/04 12:20:03;;;;;;;2.30;1.08;;;;;;;32.07;9.41;100972.22;5031699;28;20048;-77
2021/04/04 12:22:48;;;;;;;2.35;1.17;;;;;;;30.13;11.51;100967.94;5031191;28;20042;-76
2021/04/04 12:25:33;;;;;;;4.03;1.40;;;;;;;28.37;12.60;100960.50;5034032;28;20048;-76
2021/04/04 12:28:18;;;;;;;2.60;1.92;;;;;;;31.17;11.07;100961.63;5031319;28;20040;-78
2021/04/04 12:31:03;;;;;;;1.80;1.17;;;;;;;32.36;9.63;100962.75;5031090;28;20517;-76
2021/04/04 12:33:48;;;;;;;4.38;1.15;;;;;;;24.84;15.07;100941.53;5032975;28;20117;-76
2021/04/04 12:36:46;;;;;;;6.57;1.45;;;;;;;24.10;16.36;100939.09;5033051;28;20040;-76
2021/04/04 12:39:32;;;;;;;3.63;1.58;;;;;;;23.06;17.75;100917.38;5019338;28;20430;-76
2021/04/04 12:42:20;;;;;;;1.58;1.38;;;;;;;30.11;11.35;100936.75;5035197;28;20961;-77
2021/04/04 12:45:11;;;;;;;2.72;1.48;;;;;;;29.07;12.47;100929.38;5036374;28;20044;-77
2021/04/04 12:47:56;;;;;;;1.98;1.33;;;;;;;33.43;9.24;100931.94;5029709;28;20043;-75
2021/04/04 12:50:44;;;;;;;3.42;1.45;;;;;;;31.12;10.28;100925.66;5036607;28;20045;-77
2021/04/04 12:53:36;;;;;;;3.25;1.90;;;;;;;22.82;17.84;100916.91;5037272;28;20052;-77
2021/04/04 12:56:37;;;;;;;5.90;1.50;;;;;;;21.14;19.49;100913.59;5032973;28;20045;-79
2021/04/04 12:59:23;;;;;;;4.38;1.48;;;;;;;18.86;22.63;100905.31;5033457;28;20053;-77
2021/04/04 13:02:09;;;;;;;2.00;1.40;;;;;;;18.55;23.05;100905.50;5035590;28;20045;-79
2021/04/04 13:04:58;;;;;;;5.32;1.73;;;;;;;17.90;24.21;100905.31;5035031;28;20041;-76
2021/04/04 13:07:43;;;;;;;2.55;1.58;;;;;;;20.10;21.62;100898.19;5038408;28;20044;-78
2021/04/04 13:10:30;;;;;;;3.83;1.60;;;;;;;24.69;16.18;100896.34;5029614;28;20524;-83
2021/04/04 13:13:17;;;;;;;6.28;1.65;;;;;;;27.39;13.60;100896.84;5031556;28;20037;-82
2021/04/04 13:16:08;;;;;;;4.40;1.40;;;;;;;29.56;12.03;100909.78;5039290;28;20048;-85
2021/04/04 13:18:55;;;;;;;4.05;1.58;;;;;;;30.34;10.95;100899.19;5033443;28;20044;-82